createdAt,value
2022-10-22T00:00:51.409Z,2
2022-10-22T00:02:35.217Z,1
2022-10-22T00:04:19.003Z,2
2022-10-22T00:06:02.670Z,2
2022-10-22T00:07:46.337Z,2
2022-10-22T00:09:29.887Z,2
2022-10-22T00:11:13.745Z,2
2022-10-22T00:12:57.301Z,2
2022-10-22T00:14:41.174Z,2
2022-10-22T00:16:24.811Z,3
2022-10-22T00:18:08.564Z,1
2022-10-22T00:19:52.101Z,1
2022-10-22T00:21:35.928Z,2
2022-10-22T00:23:19.666Z,2
2022-10-22T00:25:03.243Z,2
2022-10-22T00:26:47.066Z,2
2022-10-22T00:28:30.606Z,2
2022-10-22T00:30:14.464Z,1
2022-10-22T00:31:58.173Z,2
2022-10-22T00:33:41.919Z,2
2022-10-22T00:35:25.502Z,2
2022-10-22T00:37:09.269Z,2
2022-10-22T00:38:52.990Z,2
2022-10-22T00:40:36.762Z,2
2022-10-22T00:42:20.385Z,0
2022-10-22T00:44:04.096Z,0
2022-10-22T00:45:47.793Z,1
2022-10-22T00:47:31.351Z,0
2022-10-22T00:49:15.192Z,1
2022-10-22T00:50:58.897Z,1
2022-10-22T00:52:42.609Z,1
2022-10-22T00:54:26.299Z,0
2022-10-22T00:56:09.853Z,0
2022-10-22T00:57:53.701Z,1
2022-10-22T00:59:37.392Z,1
2022-10-22T01:01:21.060Z,0
2022-10-22T01:03:04.849Z,0
2022-10-22T01:04:48.537Z,0
2022-10-22T01:06:32.215Z,0
2022-10-22T01:08:15.911Z,1
2022-10-22T01:09:59.605Z,0
2022-10-22T01:11:43.230Z,1
2022-10-22T01:13:27.010Z,1
2022-10-22T01:15:10.581Z,1
2022-10-22T01:16:54.453Z,0
2022-10-22T01:18:37.968Z,0
2022-10-22T01:20:21.798Z,0
2022-10-22T01:22:05.588Z,1
2022-10-22T01:23:49.221Z,0
2022-10-22T01:25:32.946Z,1
2022-10-22T01:27:16.499Z,0
2022-10-22T01:29:00.190Z,1
2022-10-22T01:30:44.069Z,1
2022-10-22T01:32:27.637Z,0
2022-10-22T01:34:11.313Z,0
2022-10-22T01:35:55.142Z,1
2022-10-22T01:37:38.824Z,1
2022-10-22T01:39:22.530Z,0
2022-10-22T01:41:06.086Z,0
2022-10-22T01:42:49.973Z,0
2022-10-22T01:44:33.677Z,0
2022-10-22T01:46:17.346Z,1
2022-10-22T01:48:01.046Z,0
2022-10-22T01:49:44.680Z,0
2022-10-22T01:51:28.297Z,1
2022-10-22T01:53:12.039Z,0
2022-10-22T01:54:55.717Z,1
2022-10-22T01:56:39.401Z,0
2022-10-22T01:58:23.081Z,0
2022-10-22T02:00:06.957Z,1
2022-10-22T02:01:50.692Z,1
2022-10-22T02:03:34.385Z,0
2022-10-22T02:05:18.091Z,1
2022-10-22T02:07:01.764Z,1
2022-10-22T02:08:45.458Z,1
2022-10-22T02:10:29.008Z,0
2022-10-22T02:12:12.771Z,1
2022-10-22T02:13:56.595Z,0
2022-10-22T02:15:40.286Z,0
2022-10-22T02:17:23.933Z,0
2022-10-22T02:19:07.675Z,1
2022-10-22T02:20:51.346Z,0
2022-10-22T02:22:35.074Z,1
2022-10-22T02:24:18.782Z,0
2022-10-22T02:26:02.470Z,0
2022-10-22T02:27:46.164Z,1
2022-10-22T02:29:29.849Z,0
2022-10-22T02:31:13.542Z,1
2022-10-22T02:32:57.298Z,1
2022-10-22T02:34:40.857Z,0
2022-10-22T02:36:24.629Z,0
2022-10-22T02:38:08.246Z,0
2022-10-22T02:39:51.958Z,0
2022-10-22T02:41:35.700Z,0
2022-10-22T02:43:19.458Z,0
2022-10-22T02:45:03.147Z,0
2022-10-22T02:46:46.783Z,1
2022-10-22T02:48:30.525Z,1
2022-10-22T02:50:14.164Z,0
2022-10-22T02:51:57.908Z,1
2022-10-22T02:53:41.722Z,1
2022-10-22T02:55:25.275Z,0
2022-10-22T02:57:08.954Z,0
2022-10-22T02:58:52.664Z,0
2022-10-22T03:00:36.503Z,1
2022-10-22T03:02:20.254Z,0
2022-10-22T03:04:03.792Z,0
2022-10-22T03:05:47.599Z,0
2022-10-22T03:07:31.299Z,1
2022-10-22T03:09:15.026Z,0
2022-10-22T03:10:58.595Z,0
2022-10-22T03:12:42.316Z,0
2022-10-22T03:14:26.009Z,0
2022-10-22T03:16:09.798Z,1
2022-10-22T03:17:53.559Z,1
2022-10-22T03:19:37.069Z,0
2022-10-22T03:21:20.886Z,0
2022-10-22T03:23:04.635Z,0
2022-10-22T03:24:48.271Z,0
2022-10-22T03:26:32.002Z,1
2022-10-22T03:28:15.651Z,0
2022-10-22T03:29:59.317Z,0
2022-10-22T03:31:43.051Z,0
2022-10-22T03:33:26.725Z,0
2022-10-22T03:35:10.406Z,0
2022-10-22T03:36:54.196Z,1
2022-10-22T03:38:37.776Z,0
2022-10-22T03:40:21.483Z,0
2022-10-22T03:42:05.249Z,1
2022-10-22T03:43:48.932Z,0
2022-10-22T03:45:32.616Z,1
2022-10-22T03:47:16.298Z,1
2022-10-22T03:49:00.007Z,0
2022-10-22T03:50:43.694Z,0
2022-10-22T03:52:27.395Z,0
2022-10-22T03:54:11.142Z,0
2022-10-22T03:55:54.875Z,0
2022-10-22T03:57:38.506Z,0
2022-10-22T03:59:22.198Z,1
2022-10-22T04:01:05.891Z,1
2022-10-22T04:02:49.751Z,0
2022-10-22T04:04:33.342Z,0
2022-10-22T04:06:17.019Z,0
2022-10-22T04:08:00.710Z,1
2022-10-22T04:09:44.401Z,0
2022-10-22T04:11:28.109Z,0
2022-10-22T04:13:11.786Z,0
2022-10-22T04:14:55.555Z,1
2022-10-22T04:16:39.230Z,0
2022-10-22T04:18:22.907Z,0
2022-10-22T04:20:06.597Z,1
2022-10-22T04:21:50.294Z,0
2022-10-22T04:23:34.008Z,0
2022-10-22T04:25:17.814Z,0
2022-10-22T04:27:01.436Z,1
2022-10-22T04:28:45.116Z,0
2022-10-22T04:30:28.796Z,0
2022-10-22T04:32:12.515Z,0
2022-10-22T04:33:56.200Z,0
2022-10-22T04:35:39.893Z,0
2022-10-22T04:37:23.649Z,1
2022-10-22T04:39:07.323Z,0
2022-10-22T04:40:51.010Z,0
2022-10-22T04:42:34.713Z,1
2022-10-22T04:44:18.403Z,0
2022-10-22T04:46:02.166Z,1
2022-10-22T04:47:45.844Z,0
2022-10-22T04:49:29.538Z,0
2022-10-22T04:51:13.211Z,0
2022-10-22T04:52:56.933Z,0
2022-10-22T04:54:40.609Z,1
2022-10-22T04:56:24.366Z,1
2022-10-22T04:58:08.050Z,1
2022-10-22T04:59:51.730Z,0
2022-10-22T05:01:35.410Z,1
2022-10-22T05:03:19.146Z,0
2022-10-22T05:05:02.828Z,0
2022-10-22T05:06:46.604Z,1
2022-10-22T05:08:30.261Z,0
2022-10-22T05:10:13.932Z,0
2022-10-22T05:11:57.615Z,0
2022-10-22T05:13:41.326Z,0
2022-10-22T05:15:25.026Z,0
2022-10-22T05:17:08.887Z,1
2022-10-22T05:18:52.458Z,1
2022-10-22T05:20:36.138Z,0
2022-10-22T05:22:19.836Z,1
2022-10-22T05:24:03.555Z,0
2022-10-22T05:25:47.253Z,0
2022-10-22T05:27:30.994Z,0
2022-10-22T05:29:14.664Z,0
2022-10-22T05:30:58.354Z,0
2022-10-22T05:32:42.050Z,0
2022-10-22T05:34:25.755Z,0
2022-10-22T05:36:09.503Z,1
2022-10-22T05:37:53.188Z,0
2022-10-22T05:39:36.866Z,0
2022-10-22T05:41:20.573Z,0
2022-10-22T05:43:04.270Z,1
2022-10-22T05:44:47.957Z,1
2022-10-22T05:46:31.713Z,1
2022-10-22T05:48:15.399Z,1
2022-10-22T05:49:59.078Z,1
2022-10-22T05:51:42.777Z,1
2022-10-22T05:53:26.472Z,1
2022-10-22T05:55:10.238Z,1
2022-10-22T05:56:53.914Z,1
2022-10-22T05:58:37.611Z,0
2022-10-22T06:00:21.312Z,1
2022-10-22T06:02:04.986Z,1
2022-10-22T06:03:48.679Z,1
2022-10-22T06:05:32.367Z,1
2022-10-22T06:07:16.126Z,1
2022-10-22T06:08:59.818Z,1
2022-10-22T06:10:43.487Z,2
2022-10-22T06:12:27.266Z,3
2022-10-22T06:14:10.874Z,3
2022-10-22T06:15:54.569Z,2
2022-10-22T06:17:38.323Z,3
2022-10-22T06:19:22.009Z,3
2022-10-22T06:21:05.715Z,3
2022-10-22T06:22:49.381Z,4
2022-10-22T06:24:33.076Z,4
2022-10-22T06:26:16.780Z,5
2022-10-22T06:28:00.469Z,5
2022-10-22T06:29:44.234Z,5
2022-10-22T06:31:27.896Z,7
2022-10-22T06:33:11.599Z,8
2022-10-22T06:34:55.294Z,9
2022-10-22T06:36:38.999Z,11
2022-10-22T06:38:22.735Z,14
2022-10-22T06:40:06.500Z,14
2022-10-22T06:41:50.099Z,14
2022-10-22T06:43:33.949Z,13
2022-10-22T06:45:17.612Z,12
2022-10-22T06:47:01.366Z,12
2022-10-22T06:48:45.105Z,13
2022-10-22T06:50:28.622Z,13
2022-10-22T06:52:12.438Z,14
2022-10-22T06:53:56.166Z,13
2022-10-22T06:55:39.823Z,11
2022-10-22T06:57:23.656Z,13
2022-10-22T06:59:07.146Z,15
2022-10-22T07:00:50.911Z,16
2022-10-22T07:02:34.665Z,18
2022-10-22T07:04:18.293Z,22
2022-10-22T07:06:01.957Z,26
2022-10-22T07:07:45.815Z,27
2022-10-22T07:09:29.509Z,28
2022-10-22T07:11:13.155Z,29
2022-10-22T07:12:56.861Z,29
2022-10-22T07:14:40.578Z,30
2022-10-22T07:16:24.246Z,30
2022-10-22T07:18:07.919Z,32
2022-10-22T07:19:51.610Z,30
2022-10-22T07:21:35.393Z,28
2022-10-22T07:23:19.068Z,25
2022-10-22T07:25:02.771Z,24
2022-10-22T07:26:46.447Z,23
2022-10-22T07:28:30.217Z,23
2022-10-22T07:30:13.908Z,24
2022-10-22T07:31:57.443Z,25
2022-10-22T07:33:41.280Z,25
2022-10-22T07:35:24.981Z,27
2022-10-22T07:37:08.689Z,28
2022-10-22T07:38:52.434Z,28
2022-10-22T07:40:36.123Z,775
2022-10-22T07:42:19.752Z,774
2022-10-22T07:44:03.478Z,775
2022-10-22T07:45:47.199Z,775
2022-10-22T07:47:30.828Z,775
2022-10-22T07:49:14.583Z,776
2022-10-22T07:50:58.300Z,776
2022-10-22T07:52:41.943Z,775
2022-10-22T07:54:25.662Z,775
2022-10-22T07:56:09.403Z,775
2022-10-22T07:57:53.176Z,776
2022-10-22T07:59:36.852Z,776
2022-10-22T08:01:20.377Z,776
2022-10-22T08:03:04.118Z,776
2022-10-22T08:04:47.824Z,776
2022-10-22T08:06:31.501Z,775
2022-10-22T08:08:15.270Z,776
2022-10-22T08:09:59.018Z,776
2022-10-22T08:11:42.731Z,776
2022-10-22T08:13:26.313Z,776
2022-10-22T08:15:09.988Z,776
2022-10-22T08:16:53.784Z,776
2022-10-22T08:18:37.532Z,776
2022-10-22T08:20:21.215Z,777
2022-10-22T08:22:04.819Z,775
2022-10-22T08:23:48.516Z,776
2022-10-22T08:25:32.275Z,775
2022-10-22T08:27:16.023Z,776
2022-10-22T08:28:59.713Z,776
2022-10-22T08:30:43.444Z,776
2022-10-22T08:32:27.123Z,776
2022-10-22T08:34:10.814Z,776
2022-10-22T08:35:54.472Z,776
2022-10-22T08:37:38.213Z,776
2022-10-22T08:39:21.923Z,775
2022-10-22T08:41:05.589Z,776
2022-10-22T08:42:49.294Z,777
2022-10-22T08:44:32.954Z,776
2022-10-22T08:46:16.638Z,776
2022-10-22T08:48:00.301Z,776
2022-10-22T08:49:44.133Z,774
2022-10-22T08:51:27.722Z,776
2022-10-22T08:53:11.510Z,776
2022-10-22T08:54:55.247Z,776
2022-10-22T08:56:38.893Z,776
2022-10-22T08:58:22.677Z,776
2022-10-22T09:00:06.364Z,776
2022-10-22T09:01:49.933Z,776
2022-10-22T09:03:33.709Z,776
2022-10-22T09:05:17.450Z,776
2022-10-22T09:07:01.053Z,776
2022-10-22T09:08:44.896Z,776
2022-10-22T09:10:28.475Z,776
2022-10-22T09:12:12.225Z,776
2022-10-22T09:13:55.941Z,776
2022-10-22T09:15:39.671Z,776
2022-10-22T09:17:23.324Z,776
2022-10-22T09:19:07.090Z,776
2022-10-22T09:20:50.763Z,777
2022-10-22T09:22:34.513Z,776
2022-10-22T09:24:18.171Z,777
2022-10-22T09:26:01.744Z,777
2022-10-22T09:27:45.636Z,777
2022-10-22T09:29:29.175Z,777
2022-10-22T09:31:12.873Z,776
2022-10-22T09:32:56.708Z,776
2022-10-22T09:34:40.348Z,777
2022-10-22T09:36:24.078Z,777
2022-10-22T09:38:07.865Z,776
2022-10-22T09:39:51.531Z,777
2022-10-22T09:41:35.193Z,777
2022-10-22T09:43:18.753Z,777
2022-10-22T09:45:02.595Z,777
2022-10-22T09:46:46.248Z,777
2022-10-22T09:48:30.042Z,776
2022-10-22T09:50:13.608Z,774
2022-10-22T09:51:57.397Z,777
2022-10-22T09:53:41.090Z,776
2022-10-22T09:55:24.774Z,777
2022-10-22T09:57:08.537Z,777
2022-10-22T09:58:52.259Z,777
2022-10-22T10:00:35.941Z,777
2022-10-22T10:02:19.556Z,777
2022-10-22T10:04:03.176Z,777
2022-10-22T10:05:47.022Z,778
2022-10-22T10:07:30.634Z,777
2022-10-22T10:09:14.313Z,777
2022-10-22T10:10:58.146Z,778
2022-10-22T10:12:41.834Z,776
2022-10-22T10:14:25.544Z,776
2022-10-22T10:16:09.328Z,777
2022-10-22T10:17:52.992Z,777
2022-10-22T10:19:36.694Z,777
2022-10-22T10:21:20.361Z,777
2022-10-22T10:23:04.071Z,777
2022-10-22T10:24:47.601Z,777
2022-10-22T10:26:31.522Z,777
2022-10-22T10:28:15.048Z,777
2022-10-22T10:29:58.867Z,775
2022-10-22T10:31:42.542Z,777
2022-10-22T10:33:26.257Z,777
2022-10-22T10:35:09.970Z,777
2022-10-22T10:36:53.618Z,777
2022-10-22T10:38:37.267Z,777
2022-10-22T10:40:20.951Z,777
2022-10-22T10:42:04.760Z,777
2022-10-22T10:43:48.381Z,777
2022-10-22T10:45:32.120Z,777
2022-10-22T10:47:15.796Z,777
2022-10-22T10:48:59.469Z,777
2022-10-22T10:50:43.164Z,777
2022-10-22T10:52:26.888Z,776
2022-10-22T10:54:10.625Z,777
2022-10-22T10:55:54.334Z,777
2022-10-22T10:57:37.982Z,777
2022-10-22T10:59:21.680Z,777
2022-10-22T11:01:05.440Z,778
2022-10-22T11:02:49.152Z,777
2022-10-22T11:04:32.854Z,777
2022-10-22T11:06:16.543Z,777
2022-10-22T11:08:00.196Z,777
2022-10-22T11:09:43.887Z,777
2022-10-22T11:11:27.595Z,777
2022-10-22T11:13:11.283Z,777
2022-10-22T11:14:55.028Z,777
2022-10-22T11:16:38.709Z,777
2022-10-22T11:18:22.394Z,777
2022-10-22T11:20:06.126Z,778
2022-10-22T11:21:49.840Z,778
2022-10-22T11:23:33.553Z,776
2022-10-22T11:25:17.233Z,778
2022-10-22T11:27:00.913Z,778
2022-10-22T11:28:44.610Z,778
2022-10-22T11:30:28.299Z,777
2022-10-22T11:32:12.020Z,778
2022-10-22T11:33:55.768Z,778
2022-10-22T11:35:39.435Z,778
2022-10-22T11:37:23.133Z,777
2022-10-22T11:39:06.831Z,777
2022-10-22T11:40:50.520Z,778
2022-10-22T11:42:34.275Z,777
2022-10-22T11:44:17.967Z,777
2022-10-22T11:46:01.656Z,777
2022-10-22T11:47:45.331Z,777
2022-10-22T11:49:29.042Z,777
2022-10-22T11:51:12.738Z,777
2022-10-22T11:52:56.491Z,778
2022-10-22T11:54:40.171Z,752
2022-10-22T11:56:23.861Z,634
2022-10-22T11:58:07.556Z,620
2022-10-22T11:59:51.264Z,450
2022-10-22T12:01:35.007Z,507
2022-10-22T12:03:18.697Z,691
2022-10-22T12:05:02.404Z,777
2022-10-22T12:06:46.078Z,777
2022-10-22T12:08:29.776Z,777
2022-10-22T12:10:13.467Z,777
2022-10-22T12:11:57.216Z,778
2022-10-22T12:13:40.899Z,777
2022-10-22T12:15:24.588Z,777
2022-10-22T12:17:08.279Z,777
2022-10-22T12:18:51.983Z,777
2022-10-22T12:20:35.839Z,777
2022-10-22T12:22:19.429Z,777
2022-10-22T12:24:03.102Z,777
2022-10-22T12:25:46.798Z,777
2022-10-22T12:27:30.500Z,777
2022-10-22T12:29:14.260Z,777
2022-10-22T12:30:57.950Z,777
2022-10-22T12:32:41.638Z,777
2022-10-22T12:34:25.327Z,778
2022-10-22T12:36:09.013Z,775
2022-10-22T12:37:52.700Z,777
2022-10-22T12:39:36.469Z,688
2022-10-22T12:41:20.149Z,777
2022-10-22T12:43:03.835Z,775
2022-10-22T12:44:47.517Z,777
2022-10-22T12:46:31.230Z,777
2022-10-22T12:48:14.934Z,778
2022-10-22T12:49:58.720Z,776
2022-10-22T12:51:42.353Z,777
2022-10-22T12:53:26.047Z,778
2022-10-22T12:55:09.763Z,420
2022-10-22T12:56:53.435Z,411
2022-10-22T12:58:37.217Z,389
2022-10-22T13:00:20.875Z,369
2022-10-22T13:02:04.565Z,368
2022-10-22T13:03:48.278Z,372
2022-10-22T13:05:31.962Z,341
2022-10-22T13:07:15.723Z,350
2022-10-22T13:08:59.408Z,347
2022-10-22T13:10:43.080Z,350
2022-10-22T13:12:26.765Z,777
2022-10-22T13:14:10.460Z,776
2022-10-22T13:15:54.167Z,777
2022-10-22T13:17:37.857Z,777
2022-10-22T13:19:21.605Z,777
2022-10-22T13:21:05.401Z,777
2022-10-22T13:22:48.970Z,777
2022-10-22T13:24:32.697Z,776
2022-10-22T13:26:16.381Z,777
2022-10-22T13:28:00.142Z,778
2022-10-22T13:29:43.814Z,777
2022-10-22T13:31:27.493Z,776
2022-10-22T13:33:11.181Z,777
2022-10-22T13:34:54.887Z,775
2022-10-22T13:36:38.584Z,777
2022-10-22T13:38:22.271Z,776
2022-10-22T13:40:06.021Z,776
2022-10-22T13:41:49.704Z,776
2022-10-22T13:43:33.392Z,777
2022-10-22T13:45:17.121Z,777
2022-10-22T13:47:00.867Z,777
2022-10-22T13:48:44.542Z,777
2022-10-22T13:50:28.221Z,777
2022-10-22T13:52:11.924Z,777
2022-10-22T13:53:55.617Z,777
2022-10-22T13:55:39.306Z,777
2022-10-22T13:57:23.062Z,777
2022-10-22T13:59:06.747Z,777
2022-10-22T14:00:50.424Z,776
2022-10-22T14:02:34.108Z,777
2022-10-22T14:04:17.826Z,777
2022-10-22T14:06:01.516Z,776
2022-10-22T14:07:45.272Z,776
2022-10-22T14:09:28.962Z,776
2022-10-22T14:11:12.643Z,775
2022-10-22T14:12:56.342Z,769
2022-10-22T14:14:40.039Z,762
2022-10-22T14:16:23.808Z,756
2022-10-22T14:18:07.476Z,748
2022-10-22T14:19:51.159Z,743
2022-10-22T14:21:34.879Z,733
2022-10-22T14:23:18.544Z,726
2022-10-22T14:25:02.242Z,718
2022-10-22T14:26:46.033Z,713
2022-10-22T14:28:29.700Z,710
2022-10-22T14:30:13.410Z,701
2022-10-22T14:31:57.061Z,696
2022-10-22T14:33:40.787Z,689
2022-10-22T14:35:24.446Z,681
2022-10-22T14:37:08.208Z,674
2022-10-22T14:38:51.909Z,669
2022-10-22T14:40:35.564Z,659
2022-10-22T14:42:19.535Z,647
2022-10-22T14:44:02.989Z,632
2022-10-22T14:45:46.667Z,616
2022-10-22T14:47:30.448Z,598
2022-10-22T14:49:14.100Z,576
2022-10-22T14:50:57.771Z,551
2022-10-22T14:52:41.526Z,524
2022-10-22T14:54:25.231Z,497
2022-10-22T14:56:08.938Z,465
2022-10-22T14:57:52.653Z,436
2022-10-22T14:59:36.312Z,400
2022-10-22T15:01:20.056Z,356
2022-10-22T15:03:03.703Z,336
2022-10-22T15:04:47.436Z,321
2022-10-22T15:06:31.150Z,310
2022-10-22T15:08:14.831Z,299
2022-10-22T15:09:58.546Z,291
2022-10-22T15:11:42.232Z,286
2022-10-22T15:13:25.960Z,283
2022-10-22T15:15:09.665Z,277
2022-10-22T15:16:53.417Z,275
2022-10-22T15:18:37.036Z,267
2022-10-22T15:20:20.717Z,263
2022-10-22T15:23:48.228Z,258
2022-10-22T15:25:31.877Z,247
2022-10-22T15:27:15.592Z,236
2022-10-22T15:28:59.263Z,225
2022-10-22T15:30:43.038Z,219
2022-10-22T15:32:26.669Z,212
2022-10-22T15:34:10.340Z,205
2022-10-22T15:35:54.077Z,200
2022-10-22T15:37:37.756Z,196
2022-10-22T15:39:21.492Z,192
2022-10-22T15:41:05.220Z,186
2022-10-22T15:42:48.868Z,182
2022-10-22T15:44:32.535Z,176
2022-10-22T15:46:16.382Z,169
2022-10-22T15:47:59.975Z,161
2022-10-22T15:49:43.653Z,148
2022-10-22T15:51:27.504Z,136
2022-10-22T15:53:11.047Z,127
2022-10-22T15:54:54.942Z,115
2022-10-22T15:56:38.533Z,107
2022-10-22T15:58:22.235Z,99
2022-10-22T16:00:05.869Z,93
2022-10-22T16:01:49.560Z,85
2022-10-22T16:03:33.332Z,79
2022-10-22T16:05:17.047Z,73
2022-10-22T16:07:00.777Z,775
2022-10-22T16:08:44.368Z,776
2022-10-22T16:10:28.087Z,776
2022-10-22T16:12:11.804Z,776
2022-10-22T16:13:55.597Z,776
2022-10-22T16:15:39.239Z,776
2022-10-22T16:17:22.899Z,776
2022-10-22T16:19:06.598Z,775
2022-10-22T16:20:50.378Z,607
2022-10-22T16:22:34.029Z,776
2022-10-22T16:24:17.735Z,743
2022-10-22T16:26:01.418Z,498
2022-10-22T16:27:45.124Z,633
2022-10-22T16:31:12.497Z,666
2022-10-22T16:32:56.285Z,488
2022-10-22T16:34:39.959Z,594
2022-10-22T16:36:23.667Z,593
2022-10-22T16:38:07.325Z,718
2022-10-22T16:39:51.098Z,723
2022-10-22T16:41:34.699Z,639
2022-10-22T16:43:18.501Z,510
2022-10-22T16:45:02.176Z,504
2022-10-22T16:46:45.914Z,772
2022-10-22T16:48:29.542Z,776
2022-10-22T16:50:13.233Z,776
2022-10-22T16:51:56.959Z,776
2022-10-22T16:53:40.662Z,776
2022-10-22T16:55:24.351Z,776
2022-10-22T16:57:08.029Z,776
2022-10-22T16:58:51.772Z,746
2022-10-22T17:00:35.412Z,776
2022-10-22T17:02:19.125Z,775
2022-10-22T17:04:02.931Z,776
2022-10-22T17:05:46.577Z,776
2022-10-22T17:07:30.276Z,776
2022-10-22T17:09:13.980Z,776
2022-10-22T17:10:57.660Z,775
2022-10-22T17:12:41.325Z,774
2022-10-22T17:14:25.087Z,776
2022-10-22T17:16:08.759Z,628
2022-10-22T17:17:52.450Z,776
2022-10-22T17:19:36.150Z,776
2022-10-22T17:21:19.859Z,776
2022-10-22T17:23:03.671Z,775
2022-10-22T17:24:47.279Z,776
2022-10-22T17:26:30.994Z,775
2022-10-22T17:28:14.674Z,775
2022-10-22T17:29:58.360Z,776
2022-10-22T17:31:42.121Z,776
2022-10-22T17:35:09.498Z,776
2022-10-22T17:36:53.172Z,770
2022-10-22T17:38:36.885Z,775
2022-10-22T17:40:20.567Z,776
2022-10-22T17:42:04.376Z,675
2022-10-22T17:43:48.013Z,666
2022-10-22T17:45:31.691Z,644
2022-10-22T17:47:15.466Z,594
2022-10-22T17:48:59.105Z,776
2022-10-22T17:50:42.791Z,776
2022-10-22T17:52:26.540Z,776
2022-10-22T17:54:10.248Z,776
2022-10-22T17:55:53.900Z,776
2022-10-22T17:57:37.584Z,776
2022-10-22T17:59:21.307Z,776
2022-10-22T18:01:04.989Z,776
2022-10-22T18:02:48.737Z,776
2022-10-22T18:04:32.423Z,776
2022-10-22T18:06:16.137Z,776
2022-10-22T18:07:59.792Z,776
2022-10-22T18:09:43.536Z,777
2022-10-22T18:11:27.223Z,776
2022-10-22T18:13:10.950Z,776
2022-10-22T18:14:54.631Z,776
2022-10-22T18:16:38.309Z,776
2022-10-22T18:18:22.002Z,775
2022-10-22T18:20:05.689Z,776
2022-10-22T18:21:49.398Z,777
2022-10-22T18:23:33.103Z,776
2022-10-22T18:25:16.854Z,776
2022-10-22T18:27:00.514Z,776
2022-10-22T18:28:44.279Z,776
2022-10-22T18:30:27.903Z,775
2022-10-22T18:32:11.622Z,776
2022-10-22T18:33:55.356Z,776
2022-10-22T18:35:39.044Z,776
2022-10-22T18:37:22.724Z,776
2022-10-22T18:39:06.453Z,776
2022-10-22T18:40:50.121Z,776
2022-10-22T18:42:33.869Z,776
2022-10-22T18:44:17.580Z,776
2022-10-22T18:46:01.239Z,776
2022-10-22T18:47:44.918Z,776
2022-10-22T18:49:28.608Z,776
2022-10-22T18:51:12.312Z,776
2022-10-22T18:52:56.033Z,776
2022-10-22T18:54:39.810Z,775
2022-10-22T18:56:23.446Z,776
2022-10-22T18:58:07.129Z,775
2022-10-22T18:59:50.827Z,776
2022-10-22T19:01:34.529Z,776
2022-10-22T19:03:18.217Z,775
2022-10-22T19:05:02.114Z,776
2022-10-22T19:06:45.662Z,776
2022-10-22T19:08:29.333Z,776
2022-10-22T19:10:13.012Z,776
2022-10-22T19:11:56.773Z,776
2022-10-22T19:13:40.490Z,776
2022-10-22T19:15:24.173Z,776
2022-10-22T19:17:07.878Z,776
2022-10-22T19:18:51.557Z,775
2022-10-22T19:20:35.229Z,776
2022-10-22T19:22:18.938Z,776
2022-10-22T19:24:02.627Z,776
2022-10-22T19:25:46.382Z,775
2022-10-22T19:27:30.081Z,776
2022-10-22T19:29:13.782Z,776
2022-10-22T19:30:57.425Z,775
2022-10-22T19:32:41.125Z,776
2022-10-22T19:34:24.908Z,775
2022-10-22T19:36:08.595Z,775
2022-10-22T19:37:52.262Z,776
2022-10-22T19:39:35.944Z,776
2022-10-22T19:41:19.653Z,776
2022-10-22T19:43:03.358Z,775
2022-10-22T19:44:47.033Z,776
2022-10-22T19:46:30.790Z,775
2022-10-22T19:48:14.470Z,776
2022-10-22T19:49:58.254Z,775
2022-10-22T19:51:41.997Z,776
2022-10-22T19:53:25.683Z,776
2022-10-22T19:55:09.412Z,775
2022-10-22T19:56:53.135Z,776
2022-10-22T19:58:36.786Z,776
2022-10-22T20:00:20.513Z,776
2022-10-22T20:02:04.208Z,776
2022-10-22T20:03:47.891Z,775
2022-10-22T20:05:31.607Z,775
2022-10-22T20:07:15.326Z,776
2022-10-22T20:08:59.016Z,775
2022-10-22T20:10:42.645Z,775
2022-10-22T20:12:26.320Z,776
2022-10-22T20:14:10.067Z,775
2022-10-22T20:15:53.847Z,775
2022-10-22T20:17:37.454Z,776
2022-10-22T20:19:21.218Z,776
2022-10-22T20:21:04.822Z,776
2022-10-22T20:22:48.585Z,15
2022-10-22T20:24:32.289Z,15
2022-10-22T20:26:15.955Z,3
2022-10-22T20:27:59.643Z,3
2022-10-22T20:29:43.367Z,3
2022-10-22T20:31:27.104Z,3
2022-10-22T20:33:10.729Z,3
2022-10-22T20:34:54.399Z,4
2022-10-22T20:36:38.072Z,3
2022-10-22T20:38:21.839Z,3
2022-10-22T20:40:05.493Z,3
2022-10-22T20:41:49.208Z,3
2022-10-22T20:43:32.874Z,3
2022-10-22T20:45:16.615Z,3
2022-10-22T20:47:00.248Z,3
2022-10-22T20:48:44.147Z,3
2022-10-22T20:50:27.750Z,3
2022-10-22T20:52:11.471Z,3
2022-10-22T20:53:55.165Z,4
2022-10-22T20:55:38.856Z,3
2022-10-22T20:57:22.514Z,4
2022-10-22T20:59:06.217Z,4
2022-10-22T21:00:50.013Z,3
2022-10-22T21:02:33.606Z,3
2022-10-22T21:04:17.318Z,4
2022-10-22T21:06:01.013Z,4
2022-10-22T21:07:44.789Z,4
2022-10-22T21:09:28.404Z,3
2022-10-22T21:11:12.218Z,3
2022-10-22T21:12:55.843Z,3
2022-10-22T21:14:39.553Z,3
2022-10-22T21:16:23.280Z,3
2022-10-22T21:18:06.979Z,4
2022-10-22T21:19:50.637Z,3
2022-10-22T21:21:34.318Z,3
2022-10-22T21:23:18.055Z,3
2022-10-22T21:25:01.737Z,3
2022-10-22T21:26:45.425Z,3
2022-10-22T21:28:29.098Z,4
2022-10-22T21:30:12.861Z,3
2022-10-22T21:33:40.229Z,4
2022-10-22T21:35:23.957Z,4
2022-10-22T21:37:07.608Z,3
2022-10-22T21:38:51.395Z,3
2022-10-22T21:40:35.107Z,3
2022-10-22T21:42:18.725Z,4
2022-10-22T21:44:02.454Z,3
2022-10-22T21:45:46.130Z,3
2022-10-22T21:47:29.872Z,4
2022-10-22T21:49:13.631Z,3
2022-10-22T21:50:57.270Z,3
2022-10-22T21:52:40.944Z,4
2022-10-22T21:54:24.736Z,3
2022-10-22T21:56:08.338Z,3
2022-10-22T21:57:52.191Z,3
2022-10-22T21:59:35.774Z,3
2022-10-22T22:01:19.487Z,4
2022-10-22T22:03:03.174Z,3
2022-10-22T22:04:46.890Z,5
2022-10-22T22:06:30.630Z,3
2022-10-22T22:08:14.324Z,3
2022-10-22T22:09:57.990Z,3
2022-10-22T22:11:41.695Z,3
2022-10-22T22:13:25.373Z,5
2022-10-22T22:15:09.071Z,4
2022-10-22T22:16:52.920Z,4
2022-10-22T22:18:36.503Z,4
2022-10-22T22:20:20.183Z,4
2022-10-22T22:22:04.033Z,5
2022-10-22T22:23:47.621Z,83
2022-10-22T22:25:31.344Z,77
2022-10-22T22:27:15.158Z,4
2022-10-22T22:28:58.786Z,4
2022-10-22T22:32:26.099Z,4
2022-10-22T22:34:09.796Z,3
2022-10-22T22:35:53.506Z,4
2022-10-22T22:37:37.240Z,4
2022-10-22T22:39:20.921Z,3
2022-10-22T22:41:04.604Z,3
2022-10-22T22:42:48.330Z,4
2022-10-22T22:44:32.003Z,2
2022-10-22T22:46:15.756Z,2
2022-10-22T22:47:59.434Z,3
2022-10-22T22:49:43.117Z,3
2022-10-22T22:51:26.827Z,3
2022-10-22T22:53:10.508Z,3
2022-10-22T22:54:54.228Z,3
2022-10-22T22:56:37.963Z,3
2022-10-22T22:58:21.640Z,3
2022-10-22T23:00:05.324Z,3
2022-10-22T23:01:49.017Z,82
2022-10-22T23:03:32.716Z,2
2022-10-22T23:05:16.466Z,2
2022-10-22T23:07:00.177Z,2
2022-10-22T23:08:43.847Z,1
2022-10-22T23:10:27.534Z,2
2022-10-22T23:12:11.233Z,2
2022-10-22T23:13:54.922Z,2
2022-10-22T23:15:38.689Z,2
2022-10-22T23:17:22.374Z,2
2022-10-22T23:19:06.055Z,2
2022-10-22T23:20:49.734Z,2
2022-10-22T23:22:33.437Z,2
2022-10-22T23:24:17.140Z,2
2022-10-22T23:26:00.894Z,2
2022-10-22T23:27:44.579Z,2
2022-10-22T23:29:28.261Z,2
2022-10-22T23:31:11.949Z,2
2022-10-22T23:32:55.660Z,2
2022-10-22T23:34:39.352Z,2
2022-10-22T23:36:23.113Z,2
2022-10-22T23:39:50.460Z,2
2022-10-22T23:41:34.157Z,2
2022-10-22T23:43:17.867Z,2
2022-10-22T23:45:01.548Z,2
2022-10-22T23:46:45.316Z,2
2022-10-22T23:48:29.004Z,2
2022-10-22T23:50:12.662Z,2
2022-10-22T23:51:56.364Z,2
2022-10-22T23:53:40.079Z,2
2022-10-22T23:55:23.759Z,2
2022-10-22T23:57:07.508Z,2
2022-10-22T23:58:51.715Z,1
